createdAt,value
2018-09-09T00:01:33.900Z,14.60
2018-09-09T00:04:03.399Z,14.50
2018-09-09T00:06:32.364Z,14.40
2018-09-09T00:09:01.530Z,14.40
2018-09-09T00:11:30.913Z,14.30
2018-09-09T00:13:59.964Z,14.20
2018-09-09T00:16:29.045Z,14.20
2018-09-09T00:18:58.566Z,14.20
2018-09-09T00:21:27.536Z,14.10
2018-09-09T00:23:56.535Z,14.00
2018-09-09T00:26:26.314Z,14.00
2018-09-09T00:28:55.297Z,14.00
2018-09-09T00:31:24.285Z,14.00
2018-09-09T00:33:53.728Z,13.90
2018-09-09T00:36:22.723Z,13.80
2018-09-09T00:38:51.853Z,13.80
2018-09-09T00:41:21.009Z,13.80
2018-09-09T00:43:50.090Z,13.80
2018-09-09T00:46:23.165Z,13.70
2018-09-09T00:48:57.453Z,13.70
2018-09-09T00:51:38.885Z,13.60
2018-09-09T00:54:07.905Z,13.50
2018-09-09T00:56:36.948Z,13.50
2018-09-09T00:59:06.068Z,13.40
2018-09-09T01:01:35.096Z,13.50
2018-09-09T01:04:04.085Z,13.50
2018-09-09T01:06:33.547Z,13.50
2018-09-09T01:09:02.595Z,13.50
2018-09-09T01:11:31.625Z,13.60
2018-09-09T01:14:00.770Z,13.60
2018-09-09T01:16:29.767Z,13.50
2018-09-09T01:18:58.804Z,13.40
2018-09-09T01:21:28.188Z,13.30
2018-09-09T01:23:57.175Z,13.20
2018-09-09T01:26:26.213Z,13.20
2018-09-09T01:28:55.471Z,13.20
2018-09-09T01:31:24.511Z,13.20
2018-09-09T01:33:56.615Z,13.20
2018-09-09T01:36:25.752Z,13.30
2018-09-09T01:38:54.776Z,13.30
2018-09-09T01:41:23.836Z,13.30
2018-09-09T01:43:52.929Z,13.40
2018-09-09T01:46:22.206Z,13.30
2018-09-09T01:48:51.204Z,13.40
2018-09-09T01:51:20.383Z,13.40
2018-09-09T01:53:49.731Z,13.40
2018-09-09T01:56:18.733Z,13.30
2018-09-09T01:58:47.797Z,13.30
2018-09-09T02:01:16.861Z,13.20
2018-09-09T02:03:45.958Z,13.20
2018-09-09T02:06:14.970Z,13.20
2018-09-09T02:08:44.664Z,13.10
2018-09-09T02:11:14.575Z,13.00
2018-09-09T02:13:43.566Z,13.00
2018-09-09T02:16:12.611Z,12.90
2018-09-09T02:18:41.692Z,12.90
2018-09-09T02:21:10.689Z,12.90
2018-09-09T02:23:40.307Z,13.00
2018-09-09T02:26:09.305Z,13.10
2018-09-09T02:28:38.350Z,13.10
2018-09-09T02:31:07.821Z,13.20
2018-09-09T02:33:36.828Z,13.20
2018-09-09T02:36:05.986Z,13.20
2018-09-09T02:38:35.028Z,13.20
2018-09-09T02:41:04.052Z,13.20
2018-09-09T02:43:33.147Z,13.10
2018-09-09T02:46:02.099Z,13.00
2018-09-09T02:48:31.127Z,13.00
2018-09-09T02:51:00.485Z,13.10
2018-09-09T02:53:29.481Z,13.10
2018-09-09T02:55:58.537Z,13.30
2018-09-09T02:58:27.944Z,13.30
2018-09-09T03:00:56.957Z,13.30
2018-09-09T03:03:25.981Z,13.40
2018-09-09T03:05:55.043Z,13.50
2018-09-09T03:08:24.020Z,13.50
2018-09-09T03:10:58.734Z,13.60
2018-09-09T03:13:27.715Z,13.50
2018-09-09T03:15:56.717Z,13.50
2018-09-09T03:18:25.954Z,13.40
2018-09-09T03:20:55.049Z,13.50
2018-09-09T03:23:24.164Z,13.40
2018-09-09T03:25:53.304Z,13.40
2018-09-09T03:28:22.284Z,13.60
2018-09-09T03:30:51.326Z,13.80
2018-09-09T03:33:20.524Z,13.80
2018-09-09T03:35:49.577Z,13.90
2018-09-09T03:38:18.735Z,13.90
2018-09-09T03:40:47.829Z,13.90
2018-09-09T03:43:16.929Z,13.80
2018-09-09T03:45:45.949Z,13.60
2018-09-09T03:48:15.019Z,13.60
2018-09-09T03:50:44.361Z,13.70
2018-09-09T03:53:13.412Z,13.60
2018-09-09T03:55:42.409Z,13.70
2018-09-09T03:58:11.469Z,13.70
2018-09-09T04:00:40.470Z,13.80
2018-09-09T04:03:09.438Z,13.90
2018-09-09T04:05:38.472Z,13.90
2018-09-09T04:08:07.880Z,13.80
2018-09-09T04:10:36.892Z,13.70
2018-09-09T04:13:06.031Z,13.80
2018-09-09T04:15:35.554Z,13.90
2018-09-09T04:18:04.675Z,14.10
2018-09-09T04:20:34.038Z,14.20
2018-09-09T04:23:03.091Z,14.30
2018-09-09T04:25:32.105Z,14.10
2018-09-09T04:28:01.099Z,14.00
2018-09-09T04:30:30.148Z,13.90
2018-09-09T04:32:59.211Z,14.00
2018-09-09T04:35:28.698Z,14.10
2018-09-09T04:37:58.065Z,14.10
2018-09-09T04:40:27.152Z,14.00
2018-09-09T04:42:56.116Z,13.90
2018-09-09T04:45:25.184Z,13.90
2018-09-09T04:47:55.054Z,13.80
2018-09-09T04:50:24.113Z,13.80
2018-09-09T04:52:53.149Z,13.70
2018-09-09T04:55:22.172Z,13.50
2018-09-09T04:57:51.519Z,13.50
2018-09-09T05:00:20.548Z,13.50
2018-09-09T05:02:49.686Z,13.40
2018-09-09T05:05:18.815Z,13.50
2018-09-09T05:07:47.853Z,13.40
2018-09-09T05:10:17.202Z,13.20
2018-09-09T05:12:46.687Z,13.10
2018-09-09T05:15:15.702Z,13.10
2018-09-09T05:17:44.713Z,13.20
2018-09-09T05:20:14.217Z,13.40
2018-09-09T05:22:43.692Z,13.50
2018-09-09T05:25:12.708Z,13.70
2018-09-09T05:27:41.956Z,13.80
2018-09-09T05:30:10.972Z,13.90
2018-09-09T05:32:40.125Z,14.10
2018-09-09T05:35:09.173Z,14.20
2018-09-09T05:37:38.793Z,14.50
2018-09-09T05:40:07.922Z,14.70
2018-09-09T05:42:36.940Z,15.10
2018-09-09T05:45:06.531Z,15.00
2018-09-09T05:47:35.533Z,15.20
2018-09-09T05:50:04.593Z,15.20
2018-09-09T05:52:34.379Z,15.10
2018-09-09T05:55:03.456Z,15.20
2018-09-09T05:57:32.482Z,15.20
2018-09-09T06:00:01.606Z,15.00
2018-09-09T06:02:30.580Z,15.00
2018-09-09T06:04:59.585Z,15.10
2018-09-09T06:07:29.015Z,15.10
2018-09-09T06:09:58.038Z,15.10
2018-09-09T06:12:27.048Z,15.10
2018-09-09T06:14:56.107Z,15.10
2018-09-09T06:17:25.090Z,15.10
2018-09-09T06:19:54.847Z,15.20
2018-09-09T06:22:24.202Z,15.20
2018-09-09T06:24:53.332Z,15.20
2018-09-09T06:27:22.361Z,15.40
2018-09-09T06:29:51.470Z,15.70
2018-09-09T06:32:20.624Z,16.00
2018-09-09T06:34:49.765Z,16.10
2018-09-09T06:37:25.522Z,16.30
2018-09-09T06:39:54.535Z,16.20
2018-09-09T06:42:23.524Z,16.00
2018-09-09T06:44:52.810Z,16.00
2018-09-09T06:47:21.840Z,16.10
2018-09-09T06:49:50.953Z,16.10
2018-09-09T06:52:20.501Z,16.10
2018-09-09T06:54:49.488Z,16.10
2018-09-09T06:57:18.533Z,16.20
2018-09-09T06:59:49.317Z,16.30
2018-09-09T07:02:18.348Z,16.30
2018-09-09T07:04:47.348Z,16.50
2018-09-09T07:07:16.372Z,16.50
2018-09-09T07:09:45.457Z,16.90
2018-09-09T07:12:14.501Z,17.10
2018-09-09T07:14:43.828Z,17.20
2018-09-09T07:17:12.886Z,17.10
2018-09-09T07:19:43.489Z,17.00
2018-09-09T07:22:12.564Z,17.20
2018-09-09T07:24:41.604Z,17.30
2018-09-09T07:27:10.645Z,17.30
2018-09-09T07:29:46.318Z,17.20
2018-09-09T07:32:15.393Z,17.50
2018-09-09T07:34:44.458Z,17.90
2018-09-09T07:37:13.469Z,18.30
2018-09-09T07:39:49.417Z,18.60
2018-09-09T07:42:19.585Z,19.30
2018-09-09T07:44:49.808Z,19.80
2018-09-09T07:47:19.006Z,20.20
2018-09-09T07:49:48.013Z,20.30
2018-09-09T07:52:17.024Z,21.20
2018-09-09T07:54:46.060Z,22.20
2018-09-09T07:57:15.166Z,23.60
2018-09-09T07:59:44.147Z,24.70
2018-09-09T08:02:13.234Z,26.60
2018-09-09T08:04:43.074Z,25.70
2018-09-09T08:07:12.099Z,25.70
2018-09-09T08:09:41.143Z,25.40
2018-09-09T08:12:10.244Z,26.30
2018-09-09T08:14:39.237Z,27.10
2018-09-09T08:17:08.477Z,26.80
2018-09-09T08:19:37.502Z,26.90
2018-09-09T08:22:06.632Z,25.00
2018-09-09T08:24:36.354Z,24.10
2018-09-09T08:27:05.657Z,23.70
2018-09-09T08:29:34.677Z,23.00
2018-09-09T08:32:03.788Z,22.90
2018-09-09T08:34:32.895Z,22.80
2018-09-09T08:37:01.924Z,22.70
2018-09-09T08:39:30.929Z,22.30
2018-09-09T08:41:59.954Z,22.00
2018-09-09T08:44:28.990Z,22.40
2018-09-09T08:46:58.015Z,23.30
2018-09-09T08:49:27.805Z,23.80
2018-09-09T08:51:56.907Z,24.20
2018-09-09T08:54:27.853Z,25.00
2018-09-09T08:56:56.921Z,25.90
2018-09-09T08:59:26.321Z,25.80
2018-09-09T09:01:56.238Z,26.30
2018-09-09T09:04:25.320Z,26.10
2018-09-09T09:06:54.413Z,25.50
2018-09-09T09:09:23.463Z,24.80
2018-09-09T09:11:52.524Z,25.10
2018-09-09T09:14:21.649Z,25.80
2018-09-09T09:16:50.772Z,25.60
2018-09-09T09:19:19.905Z,25.30
2018-09-09T09:21:48.974Z,24.70
2018-09-09T09:24:18.326Z,24.10
2018-09-09T09:26:47.357Z,24.20
2018-09-09T09:29:16.408Z,23.60
2018-09-09T09:31:45.467Z,23.40
2018-09-09T09:34:14.484Z,23.10
2018-09-09T09:36:43.562Z,22.60
2018-09-09T09:39:12.683Z,22.50
2018-09-09T09:41:41.665Z,22.60
2018-09-09T09:44:10.736Z,23.40
2018-09-09T09:46:39.784Z,25.30
2018-09-09T09:49:08.924Z,26.90
2018-09-09T09:51:38.001Z,27.60
2018-09-09T09:54:07.132Z,28.80
2018-09-09T09:56:36.229Z,28.50
2018-09-09T09:59:05.371Z,28.10
2018-09-09T10:01:34.431Z,27.60
2018-09-09T10:04:03.458Z,27.50
2018-09-09T10:06:32.889Z,27.30
2018-09-09T10:09:01.997Z,27.80
2018-09-09T10:11:31.029Z,27.10
2018-09-09T10:14:00.088Z,28.20
2018-09-09T10:16:29.090Z,27.60
2018-09-09T10:18:58.194Z,27.60
2018-09-09T10:21:27.274Z,28.30
2018-09-09T10:23:56.594Z,28.00
2018-09-09T10:26:25.543Z,27.50
2018-09-09T10:28:54.556Z,27.10
2018-09-09T10:31:23.632Z,27.10
2018-09-09T10:33:52.620Z,27.00
2018-09-09T10:36:21.698Z,27.30
2018-09-09T10:38:50.808Z,27.40
2018-09-09T10:41:19.890Z,27.30
2018-09-09T10:43:49.013Z,27.70
2018-09-09T10:46:18.202Z,28.20
2018-09-09T10:48:47.165Z,28.10
2018-09-09T10:51:16.470Z,27.50
2018-09-09T10:53:45.467Z,27.70
2018-09-09T10:56:14.508Z,28.20
2018-09-09T10:58:43.533Z,28.50
2018-09-09T11:01:12.684Z,28.90
2018-09-09T11:03:48.350Z,28.80
2018-09-09T11:06:17.407Z,28.30
2018-09-09T11:08:46.461Z,28.80
2018-09-09T11:11:15.531Z,28.00
2018-09-09T11:13:44.829Z,27.80
2018-09-09T11:16:13.873Z,26.90
2018-09-09T11:18:42.869Z,27.20
2018-09-09T11:21:12.147Z,27.30
2018-09-09T11:23:41.229Z,27.30
2018-09-09T11:26:10.247Z,27.60
2018-09-09T11:28:39.341Z,27.60
2018-09-09T11:31:08.460Z,27.20
2018-09-09T11:33:37.502Z,27.00
2018-09-09T11:36:06.577Z,26.70
2018-09-09T11:38:35.641Z,26.60
2018-09-09T11:41:04.624Z,26.50
2018-09-09T11:43:34.328Z,26.30
2018-09-09T11:46:04.061Z,27.00
2018-09-09T11:48:33.411Z,27.20
2018-09-09T11:51:02.382Z,27.90
2018-09-09T11:53:31.381Z,27.60
2018-09-09T11:56:00.531Z,27.00
2018-09-09T11:58:29.544Z,26.80
2018-09-09T12:00:58.592Z,27.00
2018-09-09T12:03:27.649Z,26.70
2018-09-09T12:05:56.704Z,26.60
2018-09-09T12:08:25.797Z,26.40
2018-09-09T12:10:54.917Z,26.10
2018-09-09T12:13:24.108Z,26.00
2018-09-09T12:15:53.210Z,26.10
2018-09-09T12:18:22.613Z,26.00
2018-09-09T12:20:51.639Z,25.90
2018-09-09T12:23:20.700Z,26.30
2018-09-09T12:25:49.746Z,26.10
2018-09-09T12:28:19.720Z,26.20
2018-09-09T12:30:49.185Z,25.80
2018-09-09T12:33:19.364Z,25.80
2018-09-09T12:35:48.421Z,26.00
2018-09-09T12:38:17.450Z,26.10
2018-09-09T12:40:46.717Z,25.90
2018-09-09T12:43:21.386Z,25.90
2018-09-09T12:45:55.756Z,25.70
2018-09-09T12:48:30.069Z,25.70
2018-09-09T12:51:00.354Z,25.90
2018-09-09T12:53:29.396Z,25.70
2018-09-09T12:55:59.046Z,25.70
2018-09-09T12:58:28.093Z,25.60
2018-09-09T13:00:57.125Z,25.80
2018-09-09T13:03:26.237Z,26.00
2018-09-09T13:05:55.280Z,25.60
2018-09-09T13:08:24.304Z,25.60
2018-09-09T13:10:53.376Z,25.90
2018-09-09T13:13:22.576Z,26.50
2018-09-09T13:15:51.605Z,26.90
2018-09-09T13:18:20.704Z,26.90
2018-09-09T13:20:49.727Z,27.00
2018-09-09T13:23:18.803Z,26.80
2018-09-09T13:25:47.802Z,26.40
2018-09-09T13:28:16.921Z,26.60
2018-09-09T13:30:45.936Z,26.50
2018-09-09T13:33:14.992Z,26.70
2018-09-09T13:35:43.973Z,27.00
2018-09-09T13:38:13.246Z,27.00
2018-09-09T13:40:42.287Z,26.90
2018-09-09T13:43:11.320Z,26.90
2018-09-09T13:45:40.406Z,27.00
2018-09-09T13:48:09.812Z,26.90
2018-09-09T13:50:38.812Z,26.70
2018-09-09T13:53:07.825Z,26.80
2018-09-09T13:55:37.134Z,26.50
2018-09-09T13:58:06.223Z,26.50
2018-09-09T14:00:35.227Z,26.50
2018-09-09T14:03:04.599Z,26.60
2018-09-09T14:05:33.609Z,26.70
2018-09-09T14:08:02.672Z,26.90
2018-09-09T14:10:31.713Z,26.80
2018-09-09T14:13:01.146Z,26.90
2018-09-09T14:15:30.169Z,26.70
2018-09-09T14:17:59.289Z,26.70
2018-09-09T14:20:28.349Z,26.70
2018-09-09T14:22:57.382Z,26.70
2018-09-09T14:25:28.126Z,26.70
2018-09-09T14:27:57.226Z,26.70
2018-09-09T14:30:26.217Z,26.70
2018-09-09T14:32:55.281Z,26.70
2018-09-09T14:35:24.261Z,26.40
2018-09-09T14:37:53.282Z,26.20
2018-09-09T14:40:22.355Z,26.00
2018-09-09T14:42:51.338Z,25.90
2018-09-09T14:45:20.469Z,25.90
2018-09-09T14:47:49.456Z,25.80
2018-09-09T14:50:18.808Z,25.80
2018-09-09T14:52:47.800Z,25.70
2018-09-09T14:55:16.815Z,25.70
2018-09-09T14:57:45.872Z,25.70
2018-09-09T15:00:15.331Z,25.80
2018-09-09T15:02:44.404Z,25.80
2018-09-09T15:05:13.496Z,25.70
2018-09-09T15:07:42.522Z,25.60
2018-09-09T15:10:11.568Z,25.60
2018-09-09T15:12:40.589Z,25.60
2018-09-09T15:15:09.631Z,25.60
2018-09-09T15:17:38.674Z,25.60
2018-09-09T15:20:07.797Z,25.60
2018-09-09T15:22:43.298Z,25.70
2018-09-09T15:25:12.301Z,25.70
2018-09-09T15:27:41.339Z,25.80
2018-09-09T15:30:10.318Z,25.90
2018-09-09T15:32:39.430Z,25.70
2018-09-09T15:35:08.539Z,25.80
2018-09-09T15:37:37.593Z,25.70
2018-09-09T15:40:06.729Z,25.70
2018-09-09T15:42:35.667Z,25.70
2018-09-09T15:45:04.708Z,25.60
2018-09-09T15:47:33.777Z,25.60
2018-09-09T15:50:03.068Z,25.60
2018-09-09T15:52:32.102Z,25.60
2018-09-09T15:55:01.112Z,25.70
2018-09-09T15:57:30.708Z,25.70
2018-09-09T15:59:59.766Z,25.50
2018-09-09T16:02:28.752Z,25.60
2018-09-09T16:04:57.744Z,25.50
2018-09-09T16:07:26.789Z,25.40
2018-09-09T16:09:55.861Z,25.30
2018-09-09T16:12:24.828Z,25.30
2018-09-09T16:14:53.819Z,25.30
2018-09-09T16:17:22.904Z,25.30
2018-09-09T16:19:52.164Z,25.20
2018-09-09T16:22:21.221Z,25.20
2018-09-09T16:24:50.249Z,25.10
2018-09-09T16:27:19.284Z,25.00
2018-09-09T16:29:48.317Z,25.00
2018-09-09T16:32:17.416Z,25.00
2018-09-09T16:34:46.453Z,25.00
2018-09-09T16:37:15.471Z,24.90
2018-09-09T16:39:44.617Z,25.00
2018-09-09T16:42:13.564Z,25.00
2018-09-09T16:44:42.627Z,24.90
2018-09-09T16:47:11.612Z,24.80
2018-09-09T16:49:40.681Z,24.70
2018-09-09T16:52:09.745Z,24.60
2018-09-09T16:54:38.760Z,24.50
2018-09-09T16:57:07.780Z,24.40
2018-09-09T16:59:36.772Z,24.30
2018-09-09T17:02:05.784Z,24.10
2018-09-09T17:04:34.761Z,24.00
2018-09-09T17:07:03.930Z,24.00
2018-09-09T17:09:32.958Z,23.90
2018-09-09T17:12:02.045Z,23.80
2018-09-09T17:14:31.070Z,23.80
2018-09-09T17:17:00.121Z,23.70
2018-09-09T17:19:29.172Z,23.70
2018-09-09T17:21:58.232Z,23.60
2018-09-09T17:24:27.224Z,23.50
2018-09-09T17:26:56.241Z,23.50
2018-09-09T17:29:25.265Z,23.40
2018-09-09T17:31:54.600Z,23.30
2018-09-09T17:34:23.618Z,23.20
2018-09-09T17:36:52.761Z,23.10
2018-09-09T17:39:21.813Z,23.00
2018-09-09T17:41:50.845Z,22.90
2018-09-09T17:44:19.879Z,22.90
2018-09-09T17:46:48.957Z,22.80
2018-09-09T17:49:17.989Z,22.70
2018-09-09T17:51:46.980Z,22.60
2018-09-09T17:54:16.015Z,22.50
2018-09-09T17:56:45.225Z,22.40
2018-09-09T17:59:14.231Z,22.40
2018-09-09T18:01:43.234Z,22.30
2018-09-09T18:04:12.250Z,22.20
2018-09-09T18:06:41.269Z,22.10
2018-09-09T18:09:10.825Z,22.00
2018-09-09T18:11:40.119Z,22.00
2018-09-09T18:14:09.137Z,21.90
2018-09-09T18:16:38.161Z,21.80
2018-09-09T18:19:07.152Z,21.70
2018-09-09T18:21:36.272Z,21.70
2018-09-09T18:24:05.283Z,21.60
2018-09-09T18:26:34.252Z,21.60
2018-09-09T18:29:03.298Z,21.50
2018-09-09T18:31:32.361Z,21.40
2018-09-09T18:34:01.369Z,21.40
2018-09-09T18:36:30.397Z,21.40
2018-09-09T18:39:00.540Z,21.30
2018-09-09T18:41:29.446Z,21.30
2018-09-09T18:43:58.456Z,21.20
2018-09-09T18:46:27.570Z,21.10
2018-09-09T18:48:56.764Z,21.10
2018-09-09T18:51:25.767Z,21.00
2018-09-09T18:53:54.800Z,21.00
2018-09-09T18:56:23.862Z,20.90
2018-09-09T18:58:52.913Z,20.90
2018-09-09T19:01:22.018Z,20.80
2018-09-09T19:03:51.102Z,20.80
2018-09-09T19:06:20.277Z,20.70
2018-09-09T19:08:49.321Z,20.70
2018-09-09T19:11:18.309Z,20.60
2018-09-09T19:13:47.666Z,20.60
2018-09-09T19:16:16.648Z,20.50
2018-09-09T19:18:45.676Z,20.50
2018-09-09T19:21:14.748Z,20.40
2018-09-09T19:23:43.800Z,20.30
2018-09-09T19:26:12.832Z,20.20
2018-09-09T19:28:41.847Z,20.20
2018-09-09T19:31:10.880Z,20.10
2018-09-09T19:33:39.953Z,20.00
2018-09-09T19:36:08.987Z,20.00
2018-09-09T19:38:38.032Z,20.00
2018-09-09T19:41:07.057Z,19.90
2018-09-09T19:43:36.880Z,19.80
2018-09-09T19:46:05.897Z,19.80
2018-09-09T19:48:34.985Z,19.80
2018-09-09T19:51:03.986Z,19.80
2018-09-09T19:53:33.014Z,19.70
2018-09-09T19:56:02.111Z,19.70
2018-09-09T19:58:31.148Z,19.60
2018-09-09T20:01:00.500Z,19.60
2018-09-09T20:03:29.880Z,19.50
2018-09-09T20:05:59.017Z,19.50
2018-09-09T20:08:28.166Z,19.40
2018-09-09T20:10:57.341Z,19.30
2018-09-09T20:13:26.318Z,19.20
2018-09-09T20:15:55.739Z,19.00
2018-09-09T20:18:24.669Z,18.70
2018-09-09T20:20:53.653Z,18.60
2018-09-09T20:23:23.029Z,18.60
2018-09-09T20:25:52.748Z,18.50
2018-09-09T20:28:21.697Z,18.40
2018-09-09T20:30:51.080Z,18.30
2018-09-09T20:33:20.416Z,18.30
2018-09-09T20:35:49.456Z,18.30
2018-09-09T20:38:18.476Z,18.30
2018-09-09T20:40:47.552Z,18.30
2018-09-09T20:43:16.552Z,18.30
2018-09-09T20:45:45.614Z,18.30
2018-09-09T20:48:14.620Z,18.30
2018-09-09T20:50:43.646Z,18.30
2018-09-09T20:53:12.934Z,18.20
2018-09-09T20:55:41.904Z,18.20
2018-09-09T20:58:10.896Z,18.10
2018-09-09T21:00:40.896Z,18.00
2018-09-09T21:03:09.905Z,17.90
2018-09-09T21:05:38.947Z,17.80
2018-09-09T21:08:07.996Z,17.70
2018-09-09T21:10:37.049Z,17.60
2018-09-09T21:13:06.529Z,17.60
2018-09-09T21:15:35.547Z,17.50
2018-09-09T21:18:04.536Z,17.40
2018-09-09T21:20:33.876Z,17.40
2018-09-09T21:23:03.140Z,17.30
2018-09-09T21:25:32.120Z,17.30
2018-09-09T21:28:01.189Z,17.20
2018-09-09T21:30:30.243Z,17.10
2018-09-09T21:32:59.248Z,17.00
2018-09-09T21:35:28.277Z,17.00
2018-09-09T21:37:57.305Z,17.00
2018-09-09T21:40:26.611Z,17.00
2018-09-09T21:42:55.602Z,16.90
2018-09-09T21:45:24.644Z,16.90
2018-09-09T21:47:53.688Z,16.80
2018-09-09T21:50:22.718Z,16.80
2018-09-09T21:52:51.723Z,16.80
2018-09-09T21:55:20.768Z,16.80
2018-09-09T21:57:49.859Z,16.80
2018-09-09T22:00:18.924Z,16.80
2018-09-09T22:02:47.930Z,17.00
2018-09-09T22:05:16.955Z,16.90
2018-09-09T22:07:46.002Z,16.80
2018-09-09T22:10:14.965Z,16.70
2018-09-09T22:12:43.976Z,16.60
2018-09-09T22:15:13.009Z,16.50
2018-09-09T22:17:42.075Z,16.50
2018-09-09T22:20:11.416Z,16.50
2018-09-09T22:22:40.416Z,16.40
2018-09-09T22:25:09.508Z,16.40
2018-09-09T22:27:38.521Z,16.40
2018-09-09T22:30:07.573Z,16.40
2018-09-09T22:32:36.630Z,16.40
2018-09-09T22:35:05.636Z,16.40
2018-09-09T22:37:34.650Z,16.50
2018-09-09T22:40:03.707Z,16.50
2018-09-09T22:42:32.660Z,16.50
2018-09-09T22:45:02.008Z,16.60
2018-09-09T22:47:30.994Z,16.70
2018-09-09T22:49:59.987Z,16.80
2018-09-09T22:52:29.037Z,16.90
2018-09-09T22:54:58.053Z,17.00
2018-09-09T22:57:27.065Z,17.00
2018-09-09T22:59:56.065Z,17.00
2018-09-09T23:02:25.090Z,17.00
2018-09-09T23:04:54.133Z,16.90
2018-09-09T23:07:23.150Z,16.90
2018-09-09T23:09:52.289Z,16.90
2018-09-09T23:12:21.337Z,16.70
2018-09-09T23:14:50.351Z,16.70
2018-09-09T23:17:19.401Z,16.70
2018-09-09T23:19:48.461Z,16.70
2018-09-09T23:22:17.496Z,16.80
2018-09-09T23:24:46.497Z,16.90
2018-09-09T23:27:15.536Z,17.10
2018-09-09T23:29:44.581Z,17.20
2018-09-09T23:32:13.554Z,17.40
2018-09-09T23:34:43.060Z,17.40
2018-09-09T23:37:12.107Z,17.40
2018-09-09T23:39:41.055Z,17.50
2018-09-09T23:42:10.082Z,17.50
2018-09-09T23:44:39.080Z,17.60
2018-09-09T23:47:08.500Z,17.60
2018-09-09T23:49:37.525Z,17.60
2018-09-09T23:52:06.557Z,17.60
2018-09-09T23:54:35.641Z,17.70
2018-09-09T23:57:04.647Z,17.70
2018-09-09T23:59:33.688Z,17.60
